createdAt,value
2022-09-15T00:01:23.422Z,16.74
2022-09-15T00:03:51.782Z,16.67
2022-09-15T00:06:21.165Z,16.82
2022-09-15T00:08:48.973Z,17.01
2022-09-15T00:11:19.437Z,16.97
2022-09-15T00:13:47.651Z,16.64
2022-09-15T00:16:16.155Z,16.42
2022-09-15T00:18:45.103Z,16.59
2022-09-15T00:21:15.136Z,16.60
2022-09-15T00:23:44.907Z,16.64
2022-09-15T00:26:16.136Z,16.85
2022-09-15T00:28:44.778Z,16.62
2022-09-15T00:31:18.527Z,16.87
2022-09-15T00:33:48.162Z,16.71
2022-09-15T00:36:17.176Z,16.83
2022-09-15T00:38:47.175Z,16.91
2022-09-15T00:41:17.586Z,16.93
2022-09-15T00:43:52.218Z,17.19
2022-09-15T00:46:23.604Z,17.20
2022-09-15T00:48:56.855Z,16.85
2022-09-15T00:51:31.045Z,17.00
2022-09-15T00:54:02.943Z,16.90
2022-09-15T00:56:34.372Z,16.85
2022-09-15T00:59:04.816Z,16.92
2022-09-15T01:01:33.280Z,16.78
2022-09-15T01:04:01.659Z,17.14
2022-09-15T01:06:34.938Z,17.22
2022-09-15T01:09:11.540Z,17.16
2022-09-15T01:11:40.962Z,17.10
2022-09-15T01:14:08.796Z,17.14
2022-09-15T01:16:48.996Z,16.94
2022-09-15T01:19:40.629Z,16.99
2022-09-15T01:22:17.187Z,16.95
2022-09-15T01:25:01.621Z,16.66
2022-09-15T01:27:52.728Z,16.38
2022-09-15T01:30:23.059Z,16.51
2022-09-15T01:33:08.753Z,16.47
2022-09-15T01:36:02.212Z,16.51
2022-09-15T01:38:45.378Z,16.60
2022-09-15T01:41:17.200Z,16.81
2022-09-15T01:43:51.551Z,16.90
2022-09-15T01:46:25.140Z,16.73
2022-09-15T01:48:56.003Z,16.58
2022-09-15T01:51:27.273Z,16.58
2022-09-15T01:53:57.070Z,16.09
2022-09-15T01:56:24.873Z,16.49
2022-09-15T01:58:53.009Z,16.26
2022-09-15T02:01:32.214Z,16.40
2022-09-15T02:04:06.245Z,16.45
2022-09-15T02:06:43.224Z,16.36
2022-09-15T02:09:15.726Z,16.25
2022-09-15T02:11:55.283Z,16.48
2022-09-15T02:14:39.075Z,16.15
2022-09-15T02:17:17.053Z,15.78
2022-09-15T02:19:51.472Z,15.77
2022-09-15T02:22:23.828Z,15.96
2022-09-15T02:24:57.495Z,15.52
2022-09-15T02:27:29.841Z,15.35
2022-09-15T02:30:03.329Z,15.98
2022-09-15T02:32:36.026Z,15.50
2022-09-15T02:35:08.244Z,15.66
2022-09-15T02:37:37.877Z,15.63
2022-09-15T02:40:07.548Z,15.64
2022-09-15T02:42:37.136Z,15.61
2022-09-15T02:45:06.153Z,15.50
2022-09-15T02:47:35.257Z,15.75
2022-09-15T02:50:03.041Z,15.85
2022-09-15T02:52:30.868Z,15.49
2022-09-15T02:54:59.300Z,15.75
2022-09-15T02:57:27.035Z,15.56
2022-09-15T03:00:12.626Z,15.81
2022-09-15T03:02:42.779Z,15.68
2022-09-15T03:05:10.966Z,15.99
2022-09-15T03:07:39.063Z,15.99
2022-09-15T03:10:08.632Z,16.07
2022-09-15T03:12:39.205Z,16.24
2022-09-15T03:15:09.169Z,16.47
2022-09-15T03:17:37.586Z,16.02
2022-09-15T03:20:08.452Z,16.13
2022-09-15T03:22:36.311Z,15.94
2022-09-15T03:25:05.745Z,15.99
2022-09-15T03:27:34.107Z,16.01
2022-09-15T03:30:01.957Z,16.08
2022-09-15T03:32:29.959Z,16.06
2022-09-15T03:34:58.644Z,16.18
2022-09-15T03:37:28.149Z,16.13
2022-09-15T03:39:56.053Z,16.13
2022-09-15T03:42:23.851Z,16.29
2022-09-15T03:44:51.581Z,16.03
2022-09-15T03:47:19.352Z,16.23
2022-09-15T03:49:47.105Z,16.23
2022-09-15T03:52:14.838Z,16.08
2022-09-15T03:54:44.205Z,15.94
2022-09-15T03:57:11.943Z,16.12
2022-09-15T03:59:39.786Z,16.05
2022-09-15T04:02:07.562Z,16.09
2022-09-15T04:04:35.382Z,16.29
2022-09-15T04:07:03.083Z,16.36
2022-09-15T04:09:31.452Z,16.31
2022-09-15T04:12:00.695Z,16.34
2022-09-15T04:14:28.522Z,16.12
2022-09-15T04:16:56.260Z,16.15
2022-09-15T04:19:24.155Z,16.00
2022-09-15T04:21:51.865Z,16.21
2022-09-15T04:24:19.676Z,16.34
2022-09-15T04:26:47.507Z,16.16
2022-09-15T04:29:17.607Z,16.33
2022-09-15T04:31:45.600Z,16.29
2022-09-15T04:34:13.716Z,16.34
2022-09-15T04:36:41.409Z,16.30
2022-09-15T04:39:09.215Z,16.37
2022-09-15T04:41:37.068Z,16.37
2022-09-15T04:44:05.071Z,16.40
2022-09-15T04:46:34.199Z,16.38
2022-09-15T04:49:02.053Z,16.28
2022-09-15T04:51:29.990Z,16.32
2022-09-15T04:53:58.741Z,16.32
2022-09-15T04:56:27.250Z,16.10
2022-09-15T04:59:03.148Z,15.89
2022-09-15T05:01:33.798Z,16.11
2022-09-15T05:04:04.628Z,15.93
2022-09-15T05:06:33.183Z,16.03
2022-09-15T05:09:01.169Z,15.84
2022-09-15T05:11:30.959Z,15.76
2022-09-15T05:13:58.759Z,15.72
2022-09-15T05:16:28.201Z,15.76
2022-09-15T05:18:58.977Z,16.05
2022-09-15T05:21:28.988Z,16.04
2022-09-15T05:23:57.076Z,16.31
2022-09-15T05:26:27.269Z,16.17
2022-09-15T05:28:56.496Z,16.39
2022-09-15T05:31:27.044Z,16.12
2022-09-15T05:33:55.466Z,15.93
2022-09-15T05:36:25.248Z,15.97
2022-09-15T05:38:56.637Z,15.96
2022-09-15T05:41:25.183Z,16.02
2022-09-15T05:43:54.305Z,16.33
2022-09-15T05:46:22.968Z,16.11
2022-09-15T05:48:51.319Z,16.19
2022-09-15T05:51:19.131Z,16.39
2022-09-15T05:53:46.924Z,16.51
2022-09-15T05:56:17.003Z,15.92
2022-09-15T05:58:47.452Z,15.99
2022-09-15T06:01:17.539Z,16.10
2022-09-15T06:03:45.597Z,15.84
2022-09-15T06:06:13.701Z,15.68
2022-09-15T06:08:55.463Z,15.97
2022-09-15T06:11:28.775Z,16.22
2022-09-15T06:13:56.754Z,16.30
2022-09-15T06:16:26.782Z,16.40
2022-09-15T06:18:55.513Z,16.05
2022-09-15T06:21:26.960Z,16.05
2022-09-15T06:23:55.436Z,16.07
2022-09-15T06:26:24.304Z,16.23
2022-09-15T06:28:56.252Z,16.19
2022-09-15T06:31:26.246Z,16.50
2022-09-15T06:33:57.956Z,16.51
2022-09-15T06:36:28.675Z,17.01
2022-09-15T06:38:57.483Z,17.23
2022-09-15T06:41:25.385Z,17.55
2022-09-15T06:43:54.453Z,17.69
2022-09-15T06:46:25.161Z,17.07
2022-09-15T06:48:53.817Z,17.02
2022-09-15T06:51:23.912Z,16.69
2022-09-15T06:53:51.988Z,16.47
2022-09-15T06:56:21.108Z,16.88
2022-09-15T06:58:49.876Z,17.45
2022-09-15T07:01:24.277Z,17.77
2022-09-15T07:03:52.938Z,17.69
2022-09-15T07:06:21.469Z,17.74
2022-09-15T07:08:51.013Z,17.29
2022-09-15T07:11:19.565Z,17.07
2022-09-15T07:13:49.068Z,17.18
2022-09-15T07:16:17.538Z,16.74
2022-09-15T07:18:47.284Z,17.09
2022-09-15T07:21:18.359Z,17.22
2022-09-15T07:23:46.284Z,17.52
2022-09-15T07:26:19.536Z,17.80
2022-09-15T07:28:50.866Z,17.74
2022-09-15T07:31:21.571Z,18.00
2022-09-15T07:33:54.234Z,18.16
2022-09-15T07:36:22.611Z,18.82
2022-09-15T07:38:51.520Z,18.84
2022-09-15T07:41:22.187Z,19.18
2022-09-15T07:43:51.442Z,19.48
2022-09-15T07:46:20.970Z,19.17
2022-09-15T07:48:53.103Z,19.12
2022-09-15T07:51:21.716Z,19.89
2022-09-15T07:53:50.317Z,21.18
2022-09-15T07:56:18.831Z,22.00
2022-09-15T07:58:47.167Z,23.78
2022-09-15T08:01:16.163Z,24.25
2022-09-15T08:03:46.310Z,23.32
2022-09-15T08:06:16.385Z,23.09
2022-09-15T08:08:45.019Z,23.13
2022-09-15T08:11:18.842Z,25.14
2022-09-15T08:13:47.816Z,24.78
2022-09-15T08:16:18.433Z,25.32
2022-09-15T08:18:46.718Z,26.54
2022-09-15T08:21:20.139Z,24.72
2022-09-15T08:23:52.410Z,24.62
2022-09-15T08:26:20.353Z,23.32
2022-09-15T08:28:48.618Z,22.75
2022-09-15T08:31:17.369Z,21.18
2022-09-15T08:33:48.972Z,21.25
2022-09-15T08:36:18.651Z,23.68
2022-09-15T08:38:47.511Z,23.28
2022-09-15T08:41:19.825Z,22.17
2022-09-15T08:43:53.926Z,21.58
2022-09-15T08:46:26.510Z,20.20
2022-09-15T08:49:03.161Z,19.11
2022-09-15T08:51:41.336Z,19.02
2022-09-15T08:54:16.676Z,19.04
2022-09-15T08:56:44.696Z,18.72
2022-09-15T08:59:15.286Z,18.71
2022-09-15T09:01:54.224Z,18.54
2022-09-15T09:04:33.781Z,18.47
2022-09-15T09:07:15.363Z,18.52
2022-09-15T09:09:50.750Z,18.86
2022-09-15T09:12:31.366Z,18.73
2022-09-15T09:15:16.982Z,18.63
2022-09-15T09:18:09.283Z,18.94
2022-09-15T09:20:49.892Z,19.20
2022-09-15T09:23:24.813Z,19.34
2022-09-15T09:25:53.717Z,19.69
2022-09-15T09:28:30.204Z,20.60
2022-09-15T09:33:59.853Z,19.89
2022-09-15T09:36:28.198Z,19.73
2022-09-15T09:38:58.553Z,19.08
2022-09-15T09:41:35.653Z,19.07
2022-09-15T09:44:05.284Z,19.04
2022-09-15T09:46:33.129Z,18.59
2022-09-15T09:49:05.201Z,18.63
2022-09-15T09:51:36.508Z,18.37
2022-09-15T09:54:16.152Z,18.38
2022-09-15T09:56:45.417Z,17.98
2022-09-15T09:59:40.474Z,18.08
2022-09-15T10:02:20.113Z,18.49
2022-09-15T10:04:50.233Z,18.93
2022-09-15T10:07:20.607Z,20.98
2022-09-15T10:09:55.894Z,20.47
2022-09-15T10:12:28.044Z,19.56
2022-09-15T10:14:58.333Z,19.46
2022-09-15T10:17:29.165Z,18.65
2022-09-15T10:19:58.849Z,19.13
2022-09-15T10:22:32.077Z,19.30
2022-09-15T10:25:03.066Z,19.31
2022-09-15T10:27:33.029Z,19.48
2022-09-15T10:30:18.209Z,19.36
2022-09-15T10:32:46.331Z,19.40
2022-09-15T10:35:16.695Z,19.62
2022-09-15T10:38:04.803Z,18.96
2022-09-15T10:40:40.230Z,19.10
2022-09-15T10:43:25.684Z,19.47
2022-09-15T10:46:03.154Z,20.15
2022-09-15T10:48:44.954Z,19.83
2022-09-15T10:51:28.904Z,21.08
2022-09-15T10:54:20.740Z,21.88
2022-09-15T10:56:53.084Z,21.20
2022-09-15T10:59:39.629Z,20.81
2022-09-15T11:02:25.531Z,20.81
2022-09-15T11:05:13.975Z,20.26
2022-09-15T11:07:49.437Z,19.59
2022-09-15T11:10:26.446Z,19.39
2022-09-15T11:13:06.894Z,20.34
2022-09-15T11:15:50.443Z,19.82
2022-09-15T11:18:35.825Z,19.89
2022-09-15T11:21:18.548Z,19.11
2022-09-15T11:23:52.808Z,19.30
2022-09-15T11:26:24.858Z,19.26
2022-09-15T11:29:00.489Z,19.20
2022-09-15T11:31:32.485Z,19.07
2022-09-15T11:34:06.784Z,18.30
2022-09-15T11:36:38.798Z,18.06
2022-09-15T11:39:11.742Z,17.86
2022-09-15T11:41:43.075Z,17.71
2022-09-15T11:44:23.195Z,17.90
2022-09-15T11:47:15.524Z,17.78
2022-09-15T11:49:48.800Z,17.94
2022-09-15T11:52:29.994Z,17.98
2022-09-15T11:55:03.762Z,18.05
2022-09-15T11:57:37.438Z,17.99
2022-09-15T12:00:13.462Z,18.09
2022-09-15T12:02:47.505Z,18.11
2022-09-15T12:05:20.801Z,18.34
2022-09-15T12:07:54.135Z,18.47
2022-09-15T12:10:26.740Z,18.55
2022-09-15T12:12:55.640Z,18.48
2022-09-15T12:15:27.515Z,18.38
2022-09-15T12:18:27.349Z,18.95
2022-09-15T12:21:01.776Z,18.51
2022-09-15T12:23:34.965Z,19.74
2022-09-15T12:26:14.699Z,20.35
2022-09-15T12:28:54.318Z,20.23
2022-09-15T12:31:32.754Z,19.73
2022-09-15T12:34:03.603Z,19.33
2022-09-15T12:36:43.953Z,19.43
2022-09-15T12:39:28.909Z,19.74
2022-09-15T12:42:06.601Z,19.80
2022-09-15T12:44:37.671Z,20.31
2022-09-15T12:47:18.131Z,20.02
2022-09-15T12:49:47.653Z,21.02
2022-09-15T12:52:17.019Z,21.05
2022-09-15T12:54:51.824Z,20.43
2022-09-15T12:57:25.434Z,20.52
2022-09-15T13:00:18.203Z,19.63
2022-09-15T13:02:49.494Z,20.19
2022-09-15T13:05:53.843Z,19.58
2022-09-15T13:08:46.988Z,19.34
2022-09-15T13:11:18.204Z,20.31
2022-09-15T13:13:50.885Z,19.79
2022-09-15T13:16:26.969Z,20.36
2022-09-15T13:19:08.668Z,20.01
2022-09-15T13:21:39.026Z,19.63
2022-09-15T13:24:15.381Z,19.29
2022-09-15T13:26:45.845Z,18.57
2022-09-15T13:29:16.399Z,19.45
2022-09-15T13:31:53.386Z,19.44
2022-09-15T13:35:05.277Z,19.21
2022-09-15T13:38:08.142Z,19.39
2022-09-15T13:41:10.544Z,19.43
2022-09-15T13:44:12.459Z,19.23
2022-09-15T13:46:54.468Z,19.07
2022-09-15T13:49:49.285Z,18.65
2022-09-15T13:52:33.818Z,18.42
2022-09-15T13:55:19.522Z,18.44
2022-09-15T14:00:55.147Z,19.43
2022-09-15T14:03:27.472Z,18.96
2022-09-15T14:05:57.721Z,18.91
2022-09-15T14:08:29.532Z,19.07
2022-09-15T14:11:01.138Z,19.09
2022-09-15T14:13:31.058Z,18.75
2022-09-15T14:16:01.009Z,18.70
2022-09-15T14:18:29.155Z,18.72
2022-09-15T14:21:03.844Z,18.20
2022-09-15T14:23:33.097Z,17.81
2022-09-15T14:26:02.954Z,18.18
2022-09-15T14:28:33.202Z,18.33
2022-09-15T14:31:26.815Z,18.05
2022-09-15T14:33:55.255Z,18.12
2022-09-15T14:36:27.687Z,17.87
2022-09-15T14:39:18.138Z,17.85
2022-09-15T14:41:46.601Z,17.85
2022-09-15T14:47:14.790Z,17.38
2022-09-15T14:49:42.568Z,17.38
2022-09-15T14:52:24.783Z,17.18
2022-09-15T14:54:56.600Z,16.80
2022-09-15T14:57:30.875Z,17.10
2022-09-15T15:00:04.734Z,17.15
2022-09-15T15:02:48.987Z,16.97
2022-09-15T15:05:20.674Z,16.78
2022-09-15T15:07:50.884Z,16.72
2022-09-15T15:10:22.854Z,16.88
2022-09-15T15:12:53.341Z,16.73
2022-09-15T15:15:22.057Z,16.62
2022-09-15T15:17:51.517Z,16.32
2022-09-15T15:20:22.766Z,16.12
2022-09-15T15:23:12.831Z,15.96
2022-09-15T15:25:41.759Z,16.13
2022-09-15T15:28:30.923Z,16.12
2022-09-15T15:31:38.769Z,16.43
2022-09-15T15:34:23.919Z,16.47
2022-09-15T15:36:51.795Z,16.58
2022-09-15T15:39:25.824Z,16.77
2022-09-15T15:42:02.394Z,16.67
2022-09-15T15:44:31.718Z,16.39
2022-09-15T15:47:02.705Z,16.29
2022-09-15T15:49:32.746Z,16.42
2022-09-15T15:52:01.746Z,16.50
2022-09-15T15:54:34.365Z,16.56
2022-09-15T15:57:24.376Z,16.45
2022-09-15T15:59:56.980Z,16.60
2022-09-15T16:02:26.358Z,16.53
2022-09-15T16:04:54.993Z,16.25
2022-09-15T16:07:29.926Z,16.40
2022-09-15T16:10:02.469Z,16.11
2022-09-15T16:12:33.208Z,16.46
2022-09-15T16:15:08.123Z,16.39
2022-09-15T16:17:36.045Z,16.32
2022-09-15T16:20:04.081Z,16.40
2022-09-15T16:22:32.030Z,16.19
2022-09-15T16:25:01.415Z,16.45
2022-09-15T16:27:30.191Z,16.22
2022-09-15T16:29:58.000Z,15.98
2022-09-15T16:32:25.915Z,16.13
2022-09-15T16:34:54.892Z,16.01
2022-09-15T16:37:23.099Z,15.92
2022-09-15T16:39:52.620Z,15.95
2022-09-15T16:42:22.287Z,16.00
2022-09-15T16:44:50.740Z,15.88
2022-09-15T16:47:19.105Z,15.61
2022-09-15T16:49:47.559Z,15.69
2022-09-15T16:52:16.852Z,15.74
2022-09-15T16:54:44.692Z,15.78
2022-09-15T16:57:12.580Z,15.80
2022-09-15T16:59:42.337Z,15.45
2022-09-15T17:02:14.597Z,15.67
2022-09-15T17:04:42.727Z,15.53
2022-09-15T17:07:10.593Z,15.87
2022-09-15T17:09:38.417Z,15.72
2022-09-15T17:12:06.729Z,15.68
2022-09-15T17:14:34.569Z,15.52
2022-09-15T17:17:04.728Z,15.66
2022-09-15T17:19:32.624Z,15.89
2022-09-15T17:22:00.527Z,15.52
2022-09-15T17:24:28.515Z,15.56
2022-09-15T17:26:56.286Z,15.51
2022-09-15T17:29:24.273Z,15.42
2022-09-15T17:31:52.379Z,15.26
2022-09-15T17:34:21.634Z,15.35
2022-09-15T17:36:49.569Z,15.19
2022-09-15T17:39:17.368Z,15.45
2022-09-15T17:41:47.115Z,15.35
2022-09-15T17:44:14.885Z,15.56
2022-09-15T17:46:42.797Z,15.37
2022-09-15T17:49:10.667Z,15.51
2022-09-15T17:51:39.793Z,15.34
2022-09-15T17:54:10.525Z,15.65
2022-09-15T17:56:38.311Z,15.20
2022-09-15T17:59:06.066Z,15.32
2022-09-15T18:01:33.986Z,15.49
2022-09-15T18:04:02.739Z,15.60
2022-09-15T18:06:30.599Z,15.45
2022-09-15T18:08:59.787Z,15.49
2022-09-15T18:11:28.880Z,15.43
2022-09-15T18:13:58.186Z,15.68
2022-09-15T18:16:26.009Z,15.56
2022-09-15T18:18:54.326Z,15.62
2022-09-15T18:21:27.840Z,15.66
2022-09-15T18:23:55.910Z,15.75
2022-09-15T18:26:26.534Z,15.70
2022-09-15T18:28:55.745Z,15.34
2022-09-15T18:31:23.881Z,15.17
2022-09-15T18:33:51.894Z,15.23
2022-09-15T18:36:19.721Z,15.01
2022-09-15T18:38:47.649Z,14.91
2022-09-15T18:41:15.416Z,14.94
2022-09-15T18:43:48.909Z,14.72
2022-09-15T18:46:18.469Z,14.73
2022-09-15T18:48:46.475Z,14.73
2022-09-15T18:51:23.783Z,14.60
2022-09-15T18:53:54.446Z,14.47
2022-09-15T18:56:22.506Z,14.64
2022-09-15T18:58:54.960Z,14.32
2022-09-15T19:01:23.256Z,14.32
2022-09-15T19:03:51.157Z,14.37
2022-09-15T19:06:18.924Z,14.42
2022-09-15T19:08:46.793Z,14.33
2022-09-15T19:11:14.647Z,14.33
2022-09-15T19:13:42.647Z,14.39
2022-09-15T19:16:11.857Z,14.27
2022-09-15T19:18:39.725Z,14.17
2022-09-15T19:21:08.924Z,14.21
2022-09-15T19:23:37.245Z,14.23
2022-09-15T19:26:05.854Z,14.07
2022-09-15T19:28:33.900Z,13.97
2022-09-15T19:31:01.827Z,13.99
2022-09-15T19:33:31.275Z,14.01
2022-09-15T19:36:26.766Z,13.87
2022-09-15T19:38:51.345Z,13.94
2022-09-15T19:41:19.176Z,13.99
2022-09-15T19:43:46.958Z,13.90
2022-09-15T19:46:15.755Z,14.07
2022-09-15T19:48:47.981Z,14.33
2022-09-15T19:51:19.295Z,14.32
2022-09-15T19:53:47.670Z,14.25
2022-09-15T19:56:17.389Z,14.06
2022-09-15T19:58:45.291Z,13.96
2022-09-15T20:01:13.350Z,13.89
2022-09-15T20:03:41.703Z,14.02
2022-09-15T20:06:10.999Z,13.99
2022-09-15T20:08:41.514Z,13.92
2022-09-15T20:11:10.081Z,14.15
2022-09-15T20:13:41.434Z,14.24
2022-09-15T20:16:09.643Z,14.28
2022-09-15T20:18:41.223Z,14.27
2022-09-15T20:21:10.386Z,14.33
2022-09-15T20:23:41.384Z,14.39
2022-09-15T20:26:11.817Z,14.25
2022-09-15T20:28:39.942Z,14.35
2022-09-15T20:31:35.011Z,14.39
2022-09-15T20:34:05.304Z,14.46
2022-09-15T20:36:36.552Z,14.58
2022-09-15T20:39:08.807Z,14.62
2022-09-15T20:41:36.996Z,14.65
2022-09-15T20:44:06.059Z,14.63
2022-09-15T20:46:33.869Z,14.24
2022-09-15T20:49:01.669Z,14.51
2022-09-15T20:51:32.054Z,14.46
2022-09-15T20:54:01.569Z,14.62
2022-09-15T20:56:32.427Z,14.80
2022-09-15T20:59:00.972Z,14.60
2022-09-15T21:01:31.888Z,14.84
2022-09-15T21:03:59.860Z,14.70
2022-09-15T21:06:29.278Z,14.75
2022-09-15T21:08:57.875Z,14.87
2022-09-15T21:11:27.512Z,14.59
2022-09-15T21:13:57.559Z,14.37
2022-09-15T21:16:28.817Z,14.59
2022-09-15T21:18:57.636Z,14.99
2022-09-15T21:21:27.321Z,14.73
2022-09-15T21:23:56.558Z,14.78
2022-09-15T21:26:26.710Z,14.82
2022-09-15T21:28:57.230Z,14.73
2022-09-15T21:31:27.569Z,14.51
2022-09-15T21:33:56.190Z,14.62
2022-09-15T21:36:25.237Z,14.58
2022-09-15T21:38:54.594Z,14.47
2022-09-15T21:41:24.204Z,14.74
2022-09-15T21:43:54.728Z,14.66
2022-09-15T21:46:26.591Z,14.70
2022-09-15T21:48:54.356Z,14.72
2022-09-15T21:51:24.977Z,14.49
2022-09-15T21:53:54.329Z,14.51
2022-09-15T21:56:23.133Z,14.70
2022-09-15T21:58:50.961Z,14.65
2022-09-15T22:01:20.113Z,14.77
2022-09-15T22:03:51.612Z,14.70
2022-09-15T22:06:20.964Z,14.51
2022-09-15T22:08:57.389Z,14.74
2022-09-15T22:11:25.462Z,14.75
2022-09-15T22:13:53.639Z,14.84
2022-09-15T22:16:24.039Z,14.92
2022-09-15T22:18:53.059Z,14.72
2022-09-15T22:21:22.627Z,14.60
2022-09-15T22:23:52.003Z,14.65
2022-09-15T22:26:23.364Z,14.65
2022-09-15T22:28:51.303Z,14.59
2022-09-15T22:31:22.574Z,14.80
2022-09-15T22:33:50.948Z,14.90
2022-09-15T22:36:25.107Z,14.67
2022-09-15T22:38:56.443Z,14.75
2022-09-15T22:41:27.309Z,14.71
2022-09-15T22:43:55.325Z,14.68
2022-09-15T22:46:23.254Z,14.59
2022-09-15T22:48:51.084Z,14.81
2022-09-15T22:51:18.894Z,15.10
2022-09-15T22:53:46.840Z,14.93
2022-09-15T22:56:19.894Z,14.72
2022-09-15T22:58:50.582Z,14.64
2022-09-15T23:01:20.888Z,14.24
2022-09-15T23:03:50.997Z,14.52
2022-09-15T23:06:18.832Z,14.40
2022-09-15T23:08:51.026Z,14.19
2022-09-15T23:11:19.503Z,14.09
2022-09-15T23:13:48.946Z,14.14
2022-09-15T23:16:17.726Z,13.99
2022-09-15T23:18:45.986Z,13.95
2022-09-15T23:21:14.921Z,13.91
2022-09-15T23:23:45.326Z,14.16
2022-09-15T23:26:14.046Z,14.36
2022-09-15T23:28:41.970Z,13.99
2022-09-15T23:31:17.434Z,13.88
2022-09-15T23:33:45.560Z,13.87
2022-09-15T23:36:15.283Z,13.67
2022-09-15T23:38:46.132Z,13.75
2022-09-15T23:41:15.188Z,13.85
2022-09-15T23:43:43.326Z,13.51
2022-09-15T23:46:11.307Z,13.68
2022-09-15T23:48:40.544Z,13.68
2022-09-15T23:51:08.872Z,13.69
2022-09-15T23:53:37.211Z,13.45
2022-09-15T23:56:05.483Z,13.37
2022-09-15T23:58:33.372Z,13.70
